createdAt,value
2019-04-25T00:00:14.187Z,420.80
2019-04-25T00:01:14.191Z,420.67
2019-04-25T00:02:14.174Z,420.64
2019-04-25T00:03:14.135Z,420.53
2019-04-25T00:04:14.136Z,420.79
2019-04-25T00:05:14.118Z,420.84
2019-04-25T00:06:14.113Z,420.73
2019-04-25T00:07:14.105Z,420.70
2019-04-25T00:08:14.109Z,421.14
2019-04-25T00:09:14.073Z,420.82
2019-04-25T00:10:14.055Z,420.67
2019-04-25T00:11:14.045Z,420.50
2019-04-25T00:12:14.037Z,420.77
2019-04-25T00:13:14.047Z,420.49
2019-04-25T00:14:14.019Z,420.50
2019-04-25T00:15:14.000Z,420.15
2019-04-25T00:16:13.989Z,420.44
2019-04-25T00:17:13.985Z,420.34
2019-04-25T00:18:14.011Z,420.35
2019-04-25T00:19:13.963Z,420.51
2019-04-25T00:20:13.944Z,420.43
2019-04-25T00:21:13.983Z,420.75
2019-04-25T00:22:13.932Z,420.28
2019-04-25T00:23:13.917Z,420.53
2019-04-25T00:24:13.921Z,420.49
2019-04-25T00:25:17.558Z,420.47
2019-04-25T00:26:13.885Z,420.45
2019-04-25T00:27:13.874Z,420.19
2019-04-25T00:28:13.854Z,420.59
2019-04-25T00:29:13.862Z,420.08
2019-04-25T00:30:13.828Z,420.39
2019-04-25T00:31:13.816Z,420.44
2019-04-25T00:32:13.806Z,420.17
2019-04-25T00:33:13.799Z,420.53
2019-04-25T00:34:13.811Z,420.57
2019-04-25T00:35:13.799Z,420.15
2019-04-25T00:36:13.774Z,420.26
2019-04-25T00:37:13.918Z,420.29
2019-04-25T00:38:13.746Z,420.38
2019-04-25T00:39:13.754Z,420.44
2019-04-25T00:40:13.725Z,420.44
2019-04-25T00:41:13.715Z,420.42
2019-04-25T00:42:13.714Z,420.20
2019-04-25T00:43:13.713Z,419.91
2019-04-25T00:44:13.694Z,420.27
2019-04-25T00:45:14.049Z,420.33
2019-04-25T00:46:13.672Z,420.11
2019-04-25T00:47:13.652Z,420.33
2019-04-25T00:48:13.626Z,420.32
2019-04-25T00:49:13.639Z,420.31
2019-04-25T00:50:13.599Z,420.19
2019-04-25T00:51:13.602Z,420.05
2019-04-25T00:52:13.577Z,420.04
2019-04-25T00:53:13.578Z,420.23
2019-04-25T00:54:13.592Z,419.94
2019-04-25T00:55:25.909Z,420.16
2019-04-25T00:56:14.538Z,420.18
2019-04-25T00:57:13.537Z,419.80
2019-04-25T00:58:13.516Z,420.19
2019-04-25T00:59:14.007Z,419.90
2019-04-25T01:00:13.513Z,420.13
2019-04-25T01:01:13.486Z,420.40
2019-04-25T01:02:13.483Z,420.01
2019-04-25T01:03:13.464Z,420.19
2019-04-25T01:04:13.445Z,420.37
2019-04-25T01:05:13.463Z,420.23
2019-04-25T01:06:13.418Z,420.15
2019-04-25T01:07:13.434Z,420.66
2019-04-25T01:08:13.402Z,420.09
2019-04-25T01:09:13.395Z,420.45
2019-04-25T01:10:13.401Z,420.42
2019-04-25T01:11:13.391Z,420.31
2019-04-25T01:12:13.374Z,420.32
2019-04-25T01:13:13.363Z,420.21
2019-04-25T01:14:13.336Z,420.49
2019-04-25T01:15:13.350Z,420.23
2019-04-25T01:16:13.313Z,420.13
2019-04-25T01:17:13.326Z,420.27
2019-04-25T01:18:13.295Z,420.62
2019-04-25T01:19:13.507Z,420.49
2019-04-25T01:20:13.969Z,420.35
2019-04-25T01:21:14.115Z,420.07
2019-04-25T01:22:14.469Z,420.48
2019-04-25T01:23:13.789Z,420.51
2019-04-25T01:24:14.108Z,420.36
2019-04-25T01:25:13.838Z,420.36
2019-04-25T01:26:13.285Z,420.56
2019-04-25T01:27:13.501Z,420.43
2019-04-25T01:28:13.301Z,420.32
2019-04-25T01:29:13.566Z,420.42
2019-04-25T01:30:14.088Z,420.54
2019-04-25T01:31:13.763Z,420.14
2019-04-25T01:32:13.972Z,420.20
2019-04-25T01:33:13.563Z,420.13
2019-04-25T01:34:14.238Z,420.17
2019-04-25T01:35:13.978Z,420.43
2019-04-25T01:36:13.400Z,420.23
2019-04-25T01:37:13.929Z,420.28
2019-04-25T01:38:13.858Z,420.37
2019-04-25T01:39:14.368Z,420.33
2019-04-25T01:40:14.081Z,420.66
2019-04-25T01:41:14.601Z,420.75
2019-04-25T01:42:13.792Z,420.29
2019-04-25T01:43:13.788Z,420.20
2019-04-25T01:44:14.331Z,420.54
2019-04-25T01:45:14.085Z,420.45
2019-04-25T01:46:13.369Z,420.23
2019-04-25T01:47:14.078Z,420.45
2019-04-25T01:48:13.635Z,420.41
2019-04-25T01:49:14.012Z,420.17
2019-04-25T01:50:13.742Z,420.44
2019-04-25T01:51:14.239Z,420.69
2019-04-25T01:52:13.670Z,420.19
2019-04-25T01:53:14.481Z,420.30
2019-04-25T01:54:14.091Z,420.18
2019-04-25T01:55:13.736Z,420.23
2019-04-25T01:56:13.527Z,420.23
2019-04-25T01:57:14.282Z,420.71
2019-04-25T01:58:13.730Z,420.25
2019-04-25T01:59:13.768Z,420.54
2019-04-25T02:00:13.955Z,420.22
2019-04-25T02:01:14.240Z,420.31
2019-04-25T02:02:14.030Z,420.56
2019-04-25T02:03:13.504Z,420.44
2019-04-25T02:04:13.218Z,420.43
2019-04-25T02:05:13.889Z,420.79
2019-04-25T02:06:13.671Z,420.06
2019-04-25T02:07:13.467Z,420.18
2019-04-25T02:08:14.167Z,420.63
2019-04-25T02:09:13.702Z,420.59
2019-04-25T02:10:13.473Z,420.60
2019-04-25T02:11:14.147Z,420.40
2019-04-25T02:12:13.494Z,420.71
2019-04-25T02:13:13.856Z,420.47
2019-04-25T02:14:13.702Z,420.46
2019-04-25T02:15:13.771Z,419.75
2019-04-25T02:16:14.133Z,420.19
2019-04-25T02:17:14.165Z,420.74
2019-04-25T02:18:13.708Z,420.65
2019-04-25T02:19:14.383Z,420.60
2019-04-25T02:20:13.971Z,420.17
2019-04-25T02:21:13.734Z,420.73
2019-04-25T02:22:12.567Z,420.21
2019-04-25T02:23:14.031Z,420.43
2019-04-25T02:24:13.683Z,420.31
2019-04-25T02:25:13.280Z,420.31
2019-04-25T02:26:17.887Z,420.64
2019-04-25T02:27:13.684Z,420.27
2019-04-25T02:28:15.559Z,420.24
2019-04-25T02:29:13.671Z,420.42
2019-04-25T02:30:15.130Z,420.04
2019-04-25T02:31:17.529Z,420.59
2019-04-25T02:32:14.551Z,420.50
2019-04-25T02:33:14.276Z,420.68
2019-04-25T02:34:15.367Z,420.62
2019-04-25T02:35:14.702Z,420.22
2019-04-25T02:36:14.454Z,420.31
2019-04-25T02:37:14.667Z,420.87
2019-04-25T02:38:14.658Z,420.51
2019-04-25T02:39:14.736Z,420.52
2019-04-25T02:40:14.171Z,420.78
2019-04-25T02:41:14.574Z,420.72
2019-04-25T02:42:16.080Z,420.73
2019-04-25T02:43:14.270Z,420.57
2019-04-25T02:44:14.449Z,420.42
2019-04-25T02:45:16.253Z,420.48
2019-04-25T02:46:12.297Z,420.56
2019-04-25T02:47:14.651Z,420.49
2019-04-25T02:48:14.210Z,420.46
2019-04-25T02:49:28.854Z,420.62
2019-04-25T02:50:15.055Z,420.33
2019-04-25T02:51:14.456Z,420.74
2019-04-25T02:52:15.103Z,420.37
2019-04-25T02:53:14.187Z,420.70
2019-04-25T02:54:14.041Z,420.66
2019-04-25T02:55:29.496Z,420.80
2019-04-25T02:56:27.586Z,420.59
2019-04-25T02:57:14.654Z,420.54
2019-04-25T02:58:13.957Z,420.45
2019-04-25T02:59:12.157Z,420.22
2019-04-25T03:00:14.775Z,420.65
2019-04-25T03:01:21.339Z,420.86
2019-04-25T03:02:15.254Z,420.48
2019-04-25T03:03:14.764Z,420.82
2019-04-25T03:04:14.253Z,420.47
2019-04-25T03:05:14.166Z,420.68
2019-04-25T03:06:12.106Z,420.76
2019-04-25T03:07:16.882Z,420.62
2019-04-25T03:08:14.272Z,420.59
2019-04-25T03:09:12.071Z,420.67
2019-04-25T03:10:14.650Z,420.47
2019-04-25T03:11:14.678Z,420.63
2019-04-25T03:12:26.973Z,420.65
2019-04-25T03:13:14.890Z,420.60
2019-04-25T03:14:11.992Z,420.31
2019-04-25T03:15:14.317Z,420.49
2019-04-25T03:16:13.985Z,420.44
2019-04-25T03:17:13.974Z,420.49
2019-04-25T03:18:14.553Z,420.48
2019-04-25T03:19:14.017Z,420.71
2019-04-25T03:20:14.586Z,420.53
2019-04-25T03:21:16.405Z,420.84
2019-04-25T03:22:15.005Z,420.47
2019-04-25T03:23:14.223Z,420.30
2019-04-25T03:24:13.892Z,420.40
2019-04-25T03:25:16.454Z,420.54
2019-04-25T03:26:13.508Z,420.67
2019-04-25T03:27:11.850Z,420.78
2019-04-25T03:28:13.466Z,420.49
2019-04-25T03:29:13.545Z,420.47
2019-04-25T03:30:14.890Z,420.80
2019-04-25T03:31:18.573Z,420.64
2019-04-25T03:32:16.338Z,420.65
2019-04-25T03:33:18.620Z,420.75
2019-04-25T03:34:19.123Z,420.73
2019-04-25T03:35:13.581Z,420.57
2019-04-25T03:36:11.736Z,420.59
2019-04-25T03:37:11.762Z,420.58
2019-04-25T03:38:11.720Z,420.83
2019-04-25T03:39:11.702Z,420.62
2019-04-25T03:40:12.303Z,420.53
2019-04-25T03:41:11.680Z,420.80
2019-04-25T03:42:12.037Z,420.79
2019-04-25T03:43:11.664Z,420.64
2019-04-25T03:44:12.522Z,420.59
2019-04-25T03:45:11.649Z,420.88
2019-04-25T03:46:14.108Z,420.80
2019-04-25T03:47:11.648Z,420.71
2019-04-25T03:48:11.704Z,420.69
2019-04-25T03:49:11.841Z,420.51
2019-04-25T03:50:12.296Z,420.63
2019-04-25T03:51:12.253Z,420.61
2019-04-25T03:52:13.759Z,420.66
2019-04-25T03:53:12.181Z,420.13
2019-04-25T03:54:12.649Z,420.40
2019-04-25T03:55:12.304Z,420.50
2019-04-25T03:56:11.512Z,420.48
2019-04-25T03:57:13.357Z,420.43
2019-04-25T03:58:11.738Z,420.70
2019-04-25T03:59:11.478Z,420.51
2019-04-25T04:00:11.466Z,420.67
2019-04-25T04:01:11.454Z,420.65
2019-04-25T04:02:11.444Z,420.53
2019-04-25T04:03:11.513Z,420.38
2019-04-25T04:04:11.425Z,420.38
2019-04-25T04:05:11.541Z,420.42
2019-04-25T04:06:11.671Z,420.76
2019-04-25T04:07:12.272Z,420.39
2019-04-25T04:08:11.912Z,420.32
2019-04-25T04:09:11.846Z,420.36
2019-04-25T04:10:12.546Z,420.23
2019-04-25T04:11:12.103Z,420.02
2019-04-25T04:12:12.243Z,420.26
2019-04-25T04:13:12.097Z,420.42
2019-04-25T04:14:11.337Z,420.61
2019-04-25T04:15:11.314Z,420.39
2019-04-25T04:16:11.316Z,420.25
2019-04-25T04:17:11.285Z,420.27
2019-04-25T04:18:11.260Z,420.49
2019-04-25T04:19:11.282Z,420.69
2019-04-25T04:20:11.250Z,420.12
2019-04-25T04:21:11.229Z,420.52
2019-04-25T04:22:11.254Z,420.22
2019-04-25T04:23:11.353Z,420.43
2019-04-25T04:24:11.783Z,420.62
2019-04-25T04:25:11.628Z,420.31
2019-04-25T04:26:11.532Z,420.32
2019-04-25T04:27:12.074Z,420.30
2019-04-25T04:28:11.846Z,420.58
2019-04-25T04:29:12.066Z,420.17
2019-04-25T04:30:12.087Z,420.08
2019-04-25T04:31:11.115Z,420.58
2019-04-25T04:32:11.144Z,420.45
2019-04-25T04:33:25.042Z,420.35
2019-04-25T04:34:14.341Z,420.20
2019-04-25T04:35:11.077Z,420.44
2019-04-25T04:36:11.062Z,420.46
2019-04-25T04:37:11.182Z,420.44
2019-04-25T04:38:11.636Z,420.25
2019-04-25T04:39:11.947Z,420.46
2019-04-25T04:40:11.624Z,420.13
2019-04-25T04:41:11.548Z,420.02
2019-04-25T04:42:11.671Z,420.33
2019-04-25T04:43:11.702Z,420.10
2019-04-25T04:44:11.671Z,420.49
2019-04-25T04:45:12.031Z,420.31
2019-04-25T04:46:10.952Z,420.33
2019-04-25T04:47:10.940Z,420.15
2019-04-25T04:48:10.936Z,420.26
2019-04-25T04:49:10.930Z,420.24
2019-04-25T04:50:10.935Z,420.36
2019-04-25T04:51:10.892Z,420.25
2019-04-25T04:52:10.901Z,420.67
2019-04-25T04:53:11.013Z,420.09
2019-04-25T04:54:11.032Z,420.19
2019-04-25T04:55:11.642Z,420.06
2019-04-25T04:56:11.344Z,420.19
2019-04-25T04:57:23.463Z,420.37
2019-04-25T04:58:13.073Z,420.48
2019-04-25T04:59:10.942Z,420.44
2019-04-25T05:00:11.102Z,420.34
2019-04-25T05:01:11.121Z,420.69
2019-04-25T05:02:11.598Z,420.33
2019-04-25T05:03:11.199Z,420.55
2019-04-25T05:04:10.756Z,420.37
2019-04-25T05:05:11.533Z,420.41
2019-04-25T05:06:11.007Z,420.42
2019-04-25T05:07:11.062Z,420.45
2019-04-25T05:08:11.089Z,420.50
2019-04-25T05:09:11.894Z,420.05
2019-04-25T05:10:11.386Z,420.40
2019-04-25T05:11:12.304Z,420.49
2019-04-25T05:12:11.494Z,420.55
2019-04-25T05:13:11.956Z,420.71
2019-04-25T05:14:11.731Z,420.63
2019-04-25T05:15:10.617Z,420.64
2019-04-25T05:16:11.149Z,420.51
2019-04-25T05:17:11.361Z,419.95
2019-04-25T05:18:11.536Z,420.36
2019-04-25T05:19:11.502Z,420.65
2019-04-25T05:20:10.566Z,420.61
2019-04-25T05:21:10.559Z,420.70
2019-04-25T05:22:10.554Z,420.28
2019-04-25T05:23:10.583Z,420.14
2019-04-25T05:24:10.522Z,420.12
2019-04-25T05:25:10.577Z,420.42
2019-04-25T05:26:10.504Z,420.32
2019-04-25T05:27:10.489Z,420.35
2019-04-25T05:28:10.504Z,420.54
2019-04-25T05:29:10.465Z,420.43
2019-04-25T05:30:10.457Z,420.10
2019-04-25T05:31:10.472Z,420.37
2019-04-25T05:32:10.438Z,420.86
2019-04-25T05:33:10.449Z,420.15
2019-04-25T05:34:10.407Z,420.53
2019-04-25T05:35:10.407Z,420.50
2019-04-25T05:36:10.392Z,420.85
2019-04-25T05:37:10.370Z,420.21
2019-04-25T05:38:10.381Z,420.58
2019-04-25T05:39:10.355Z,420.56
2019-04-25T05:40:10.351Z,420.65
2019-04-25T05:41:10.339Z,420.31
2019-04-25T05:42:10.318Z,420.53
2019-04-25T05:43:10.341Z,420.65
2019-04-25T05:44:10.313Z,420.32
2019-04-25T05:45:10.291Z,420.52
2019-04-25T05:46:10.276Z,420.27
2019-04-25T05:47:10.269Z,420.43
2019-04-25T05:48:10.287Z,420.42
2019-04-25T05:49:10.249Z,420.46
2019-04-25T05:50:10.248Z,420.25
2019-04-25T05:51:10.219Z,420.52
2019-04-25T05:52:10.210Z,420.50
2019-04-25T05:53:10.212Z,420.13
2019-04-25T05:54:10.227Z,420.60
2019-04-25T05:55:10.182Z,420.60
2019-04-25T05:56:10.161Z,420.34
2019-04-25T05:57:10.147Z,420.25
2019-04-25T05:58:10.139Z,419.94
2019-04-25T05:59:10.162Z,420.52
2019-04-25T06:00:10.124Z,420.53
2019-04-25T06:01:10.102Z,420.78
2019-04-25T06:02:10.099Z,420.55
2019-04-25T06:03:10.087Z,420.49
2019-04-25T06:04:10.089Z,420.31
2019-04-25T06:05:10.089Z,420.45
2019-04-25T06:06:10.046Z,420.48
2019-04-25T06:07:10.042Z,420.64
2019-04-25T06:08:10.026Z,419.99
2019-04-25T06:09:10.028Z,420.36
2019-04-25T06:10:10.020Z,420.70
2019-04-25T06:11:09.989Z,420.37
2019-04-25T06:12:09.978Z,420.55
2019-04-25T06:13:09.974Z,420.75
2019-04-25T06:14:09.962Z,420.60
2019-04-25T06:15:10.006Z,420.87
2019-04-25T06:16:09.953Z,420.85
2019-04-25T06:17:09.929Z,420.86
2019-04-25T06:18:09.902Z,420.60
2019-04-25T06:19:13.962Z,420.95
2019-04-25T06:20:10.908Z,420.62
2019-04-25T06:21:09.873Z,420.63
2019-04-25T06:22:09.878Z,420.47
2019-04-25T06:23:09.850Z,420.92
2019-04-25T06:24:09.842Z,420.93
2019-04-25T06:25:13.747Z,420.91
2019-04-25T06:26:22.840Z,420.66
2019-04-25T06:27:10.822Z,420.62
2019-04-25T06:28:09.800Z,420.76
2019-04-25T06:29:09.790Z,420.84
2019-04-25T06:30:09.782Z,420.63
2019-04-25T06:31:10.441Z,420.52
2019-04-25T06:32:09.752Z,420.60
2019-04-25T06:33:09.742Z,420.75
2019-04-25T06:34:09.723Z,420.40
2019-04-25T06:35:09.734Z,420.67
2019-04-25T06:36:09.738Z,420.55
2019-04-25T06:37:09.746Z,420.46
2019-04-25T06:38:09.684Z,420.42
2019-04-25T06:39:09.703Z,420.17
2019-04-25T06:40:09.660Z,420.53
2019-04-25T06:41:09.657Z,420.41
2019-04-25T06:42:09.664Z,420.35
2019-04-25T06:43:09.624Z,420.55
2019-04-25T06:44:09.624Z,420.33
2019-04-25T06:45:09.615Z,420.20
2019-04-25T06:46:09.591Z,420.32
2019-04-25T06:47:09.627Z,420.30
2019-04-25T06:48:09.608Z,420.31
2019-04-25T06:49:09.562Z,420.33
2019-04-25T06:50:09.572Z,420.22
2019-04-25T06:51:09.533Z,420.15
2019-04-25T06:52:09.546Z,420.31
2019-04-25T06:53:09.522Z,420.13
2019-04-25T06:54:09.511Z,419.82
2019-04-25T06:55:09.511Z,420.09
2019-04-25T06:56:09.493Z,420.17
2019-04-25T06:57:09.518Z,420.08
2019-04-25T06:58:12.312Z,419.74
2019-04-25T06:59:09.462Z,419.87
2019-04-25T07:00:09.488Z,419.85
2019-04-25T07:01:09.436Z,419.97
2019-04-25T07:02:09.414Z,420.03
2019-04-25T07:03:09.413Z,419.98
2019-04-25T07:04:09.407Z,420.04
2019-04-25T07:05:09.459Z,419.69
2019-04-25T07:06:09.377Z,419.64
2019-04-25T07:07:12.433Z,419.91
2019-04-25T07:08:09.429Z,419.96
2019-04-25T07:09:09.345Z,419.99
2019-04-25T07:10:09.335Z,419.78
2019-04-25T07:11:09.320Z,420.14
2019-04-25T07:12:09.336Z,419.92
2019-04-25T07:13:09.338Z,420.10
2019-04-25T07:14:09.280Z,420.16
2019-04-25T07:15:09.287Z,419.91
2019-04-25T07:16:09.281Z,419.99
2019-04-25T07:17:09.267Z,420.22
2019-04-25T07:18:09.350Z,420.18
2019-04-25T07:19:09.273Z,419.99
2019-04-25T07:20:09.298Z,420.42
2019-04-25T07:21:09.204Z,420.22
2019-04-25T07:22:09.250Z,420.17
2019-04-25T07:23:09.194Z,420.31
2019-04-25T07:24:09.233Z,420.42
2019-04-25T07:25:09.464Z,420.47
2019-04-25T07:26:09.146Z,420.26
2019-04-25T07:27:09.139Z,420.19
2019-04-25T07:28:16.383Z,420.31
2019-04-25T07:29:10.116Z,420.39
2019-04-25T07:30:09.114Z,420.19
2019-04-25T07:31:09.146Z,420.26
2019-04-25T07:32:09.100Z,420.15
2019-04-25T07:33:09.077Z,420.34
2019-04-25T07:34:09.062Z,420.15
2019-04-25T07:35:09.063Z,420.17
2019-04-25T07:36:09.049Z,420.32
2019-04-25T07:37:09.025Z,420.10
2019-04-25T07:38:09.012Z,420.22
2019-04-25T07:39:10.679Z,420.01
2019-04-25T07:40:09.035Z,420.40
2019-04-25T07:41:08.977Z,420.28
2019-04-25T07:42:08.963Z,420.31
2019-04-25T07:43:08.970Z,419.83
2019-04-25T07:44:08.945Z,419.98
2019-04-25T07:45:08.997Z,419.85
2019-04-25T07:46:08.924Z,419.90
2019-04-25T07:47:08.914Z,419.89
2019-04-25T07:48:08.893Z,420.22
2019-04-25T07:49:08.890Z,420.32
2019-04-25T07:50:08.916Z,419.65
2019-04-25T07:51:08.889Z,419.80
2019-04-25T07:52:11.433Z,419.58
2019-04-25T07:53:08.847Z,420.06
2019-04-25T07:54:08.836Z,420.05
2019-04-25T07:55:08.854Z,419.92
2019-04-25T07:56:08.826Z,419.78
2019-04-25T07:57:08.813Z,419.80
2019-04-25T07:58:08.784Z,419.63
2019-04-25T07:59:08.780Z,419.62
2019-04-25T08:00:08.779Z,419.55
2019-04-25T08:01:08.751Z,419.72
2019-04-25T08:02:08.749Z,419.49
2019-04-25T08:03:08.797Z,419.70
2019-04-25T08:04:08.723Z,419.81
2019-04-25T08:05:08.712Z,419.79
2019-04-25T08:06:08.713Z,419.85
2019-04-25T08:07:08.686Z,419.84
2019-04-25T08:08:08.689Z,419.63
2019-04-25T08:09:08.668Z,419.45
2019-04-25T08:10:08.659Z,419.21
2019-04-25T08:11:08.691Z,419.35
2019-04-25T08:12:08.635Z,419.77
2019-04-25T08:13:08.622Z,419.41
2019-04-25T08:14:08.628Z,419.67
2019-04-25T08:15:08.594Z,419.62
2019-04-25T08:16:08.591Z,419.63
2019-04-25T08:17:08.587Z,419.72
2019-04-25T08:18:08.563Z,419.89
2019-04-25T08:19:08.546Z,419.69
2019-04-25T08:20:08.532Z,419.67
2019-04-25T08:21:08.588Z,419.70
2019-04-25T08:22:08.528Z,419.57
2019-04-25T08:23:08.524Z,419.74
2019-04-25T08:24:08.504Z,419.80
2019-04-25T08:25:08.511Z,419.72
2019-04-25T08:26:08.519Z,419.27
2019-04-25T08:27:08.533Z,419.58
2019-04-25T08:28:08.464Z,419.65
2019-04-25T08:29:08.453Z,419.29
2019-04-25T08:30:08.453Z,419.66
2019-04-25T08:31:08.543Z,419.35
2019-04-25T08:32:08.398Z,419.83
2019-04-25T08:33:08.399Z,419.70
2019-04-25T08:34:08.398Z,419.65
2019-04-25T08:35:08.373Z,419.53
2019-04-25T08:36:09.314Z,419.43
2019-04-25T08:37:18.186Z,419.58
2019-04-25T08:38:09.334Z,419.52
2019-04-25T08:39:08.333Z,419.71
2019-04-25T08:40:08.312Z,419.37
2019-04-25T08:41:08.314Z,419.49
2019-04-25T08:42:08.328Z,419.47
2019-04-25T08:43:08.269Z,419.70
2019-04-25T08:44:08.281Z,419.50
2019-04-25T08:45:08.273Z,419.64
2019-04-25T08:46:08.258Z,419.58
2019-04-25T08:47:08.263Z,419.50
2019-04-25T08:48:08.233Z,419.66
2019-04-25T08:49:08.217Z,419.06
2019-04-25T08:50:08.203Z,419.49
2019-04-25T08:51:08.194Z,419.12
2019-04-25T08:52:08.214Z,419.55
2019-04-25T08:53:08.164Z,419.37
2019-04-25T08:54:08.157Z,419.66
2019-04-25T08:55:08.145Z,419.20
2019-04-25T08:56:08.143Z,419.71
2019-04-25T08:57:08.145Z,419.23
2019-04-25T08:58:08.113Z,419.32
2019-04-25T08:59:08.221Z,419.41
2019-04-25T09:00:08.085Z,419.13
2019-04-25T09:01:08.081Z,419.37
2019-04-25T09:02:08.087Z,419.42
2019-04-25T09:03:08.060Z,419.57
2019-04-25T09:04:08.037Z,419.28
2019-04-25T09:05:08.034Z,419.26
2019-04-25T09:06:08.020Z,419.02
2019-04-25T09:07:08.038Z,419.26
2019-04-25T09:08:08.009Z,419.48
2019-04-25T09:09:08.008Z,418.88
2019-04-25T09:10:07.980Z,419.30
2019-04-25T09:11:07.973Z,419.30
2019-04-25T09:12:07.995Z,419.19
2019-04-25T09:13:07.947Z,419.57
2019-04-25T09:14:07.942Z,419.15
2019-04-25T09:15:07.930Z,419.28
2019-04-25T09:16:07.914Z,419.24
2019-04-25T09:17:07.890Z,418.97
2019-04-25T09:18:07.904Z,419.19
2019-04-25T09:19:07.890Z,419.42
2019-04-25T09:20:07.864Z,419.33
2019-04-25T09:21:07.846Z,419.25
2019-04-25T09:22:07.840Z,419.04
2019-04-25T09:23:07.838Z,419.38
2019-04-25T09:24:07.814Z,419.31
2019-04-25T09:25:07.808Z,419.21
2019-04-25T09:26:07.796Z,419.27
2019-04-25T09:27:07.785Z,418.99
2019-04-25T09:28:07.838Z,419.22
2019-04-25T09:29:16.959Z,419.42
2019-04-25T09:30:08.808Z,418.91
2019-04-25T09:31:07.737Z,419.30
2019-04-25T09:32:07.725Z,418.93
2019-04-25T09:33:07.744Z,419.12
2019-04-25T09:34:07.709Z,419.62
2019-04-25T09:35:07.722Z,418.95
2019-04-25T09:36:07.690Z,419.15
2019-04-25T09:37:07.667Z,419.53
2019-04-25T09:38:07.688Z,419.40
2019-04-25T09:39:07.662Z,419.47
2019-04-25T09:40:07.640Z,419.44
2019-04-25T09:41:07.632Z,419.15
2019-04-25T09:42:07.613Z,419.24
2019-04-25T09:43:07.624Z,419.05
2019-04-25T09:44:07.595Z,419.69
2019-04-25T09:45:07.586Z,419.34
2019-04-25T09:46:07.573Z,419.13
2019-04-25T09:47:07.566Z,419.27
2019-04-25T09:48:07.560Z,419.49
2019-04-25T09:49:07.534Z,418.77
2019-04-25T09:50:07.518Z,419.58
2019-04-25T09:51:07.514Z,419.23
2019-04-25T09:52:07.505Z,419.08
2019-04-25T09:53:07.527Z,419.36
2019-04-25T09:54:07.511Z,419.22
2019-04-25T09:55:07.465Z,419.08
2019-04-25T09:56:07.477Z,418.81
2019-04-25T09:57:07.458Z,419.07
2019-04-25T09:58:07.480Z,418.86
2019-04-25T09:59:07.427Z,418.89
2019-04-25T10:00:07.429Z,418.74
2019-04-25T10:01:07.411Z,418.84
2019-04-25T10:02:07.394Z,418.89
2019-04-25T10:03:07.391Z,418.96
2019-04-25T10:04:07.389Z,419.53
2019-04-25T10:05:07.369Z,419.80
2019-04-25T10:06:07.337Z,418.70
2019-04-25T10:07:07.359Z,419.03
2019-04-25T10:08:07.325Z,418.92
2019-04-25T10:09:07.329Z,418.76
2019-04-25T10:10:07.299Z,418.81
2019-04-25T10:11:07.307Z,418.79
2019-04-25T10:12:07.277Z,419.22
2019-04-25T10:13:07.260Z,419.03
2019-04-25T10:14:07.395Z,418.88
2019-04-25T10:15:07.247Z,418.70
2019-04-25T10:16:07.248Z,418.86
2019-04-25T10:17:07.248Z,418.74
2019-04-25T10:18:07.227Z,419.09
2019-04-25T10:19:07.232Z,419.07
2019-04-25T10:20:07.195Z,418.94
2019-04-25T10:21:07.181Z,419.36
2019-04-25T10:22:07.183Z,418.90
2019-04-25T10:23:07.154Z,418.78
2019-04-25T10:24:07.162Z,418.61
2019-04-25T10:25:07.138Z,418.31
2019-04-25T10:26:07.127Z,418.95
2019-04-25T10:27:07.111Z,419.05
2019-04-25T10:28:07.103Z,419.02
2019-04-25T10:29:07.129Z,419.05
2019-04-25T10:30:16.803Z,418.74
2019-04-25T10:31:08.061Z,418.91
2019-04-25T10:32:07.079Z,418.73
2019-04-25T10:33:07.083Z,419.16
2019-04-25T10:34:07.061Z,418.69
2019-04-25T10:35:07.034Z,418.82
2019-04-25T10:36:07.014Z,419.12
2019-04-25T10:37:07.015Z,419.08
2019-04-25T10:38:06.994Z,418.88
2019-04-25T10:39:10.863Z,418.92
2019-04-25T10:40:06.989Z,419.32
2019-04-25T10:41:06.953Z,418.75
2019-04-25T10:42:06.951Z,419.41
2019-04-25T10:43:06.937Z,419.03
2019-04-25T10:44:06.938Z,418.61
2019-04-25T10:45:06.941Z,418.39
2019-04-25T10:46:06.907Z,419.01
2019-04-25T10:47:06.890Z,418.94
2019-04-25T10:48:06.878Z,418.72
2019-04-25T10:49:06.864Z,418.76
2019-04-25T10:50:06.873Z,418.77
2019-04-25T10:51:06.837Z,418.74
2019-04-25T10:52:06.846Z,418.73
2019-04-25T10:53:06.824Z,418.62
2019-04-25T10:54:06.860Z,418.74
2019-04-25T10:55:06.815Z,418.24
2019-04-25T10:56:06.780Z,418.37
2019-04-25T10:57:06.784Z,418.52
2019-04-25T10:58:06.762Z,418.60
2019-04-25T10:59:06.756Z,418.49
2019-04-25T11:00:09.494Z,418.27
2019-04-25T11:01:06.734Z,418.77
2019-04-25T11:02:06.718Z,418.26
2019-04-25T11:03:06.705Z,418.54
2019-04-25T11:04:06.701Z,418.29
2019-04-25T11:05:06.699Z,418.21
2019-04-25T11:06:06.678Z,418.18
2019-04-25T11:07:06.666Z,418.27
2019-04-25T11:08:06.658Z,418.43
2019-04-25T11:09:06.638Z,418.49
2019-04-25T11:10:06.641Z,418.30
2019-04-25T11:11:06.614Z,418.32
2019-04-25T11:12:06.614Z,418.00
2019-04-25T11:13:06.613Z,417.98
2019-04-25T11:14:07.608Z,418.37
2019-04-25T11:15:06.597Z,418.05
2019-04-25T11:16:06.566Z,418.12
2019-04-25T11:17:06.554Z,418.33
2019-04-25T11:18:06.545Z,417.80
2019-04-25T11:19:06.538Z,418.39
2019-04-25T11:20:06.527Z,418.48
2019-04-25T11:21:06.513Z,418.54
2019-04-25T11:22:06.505Z,418.46
2019-04-25T11:23:06.479Z,418.22
2019-04-25T11:24:06.463Z,418.58
2019-04-25T11:25:06.490Z,418.33
2019-04-25T11:26:06.459Z,418.57
2019-04-25T11:27:06.443Z,418.28
2019-04-25T11:28:06.421Z,418.32
2019-04-25T11:29:06.417Z,417.80
2019-04-25T11:30:10.885Z,418.25
2019-04-25T11:31:06.390Z,418.28
2019-04-25T11:32:06.500Z,418.48
2019-04-25T11:33:06.373Z,418.16
2019-04-25T11:34:06.356Z,418.21
2019-04-25T11:35:06.367Z,418.16
2019-04-25T11:36:06.339Z,418.19
2019-04-25T11:37:06.330Z,418.28
2019-04-25T11:38:06.327Z,418.11
2019-04-25T11:39:06.344Z,418.00
2019-04-25T11:40:06.328Z,417.97
2019-04-25T11:41:06.278Z,418.29
2019-04-25T11:42:06.307Z,417.84
2019-04-25T11:43:06.256Z,418.01
2019-04-25T11:44:06.255Z,418.12
2019-04-25T11:45:06.267Z,417.86
2019-04-25T11:46:06.219Z,418.05
2019-04-25T11:47:08.369Z,417.99
2019-04-25T11:48:06.205Z,417.99
2019-04-25T11:49:06.189Z,417.66
2019-04-25T11:50:06.216Z,417.91
2019-04-25T11:51:06.166Z,418.07
2019-04-25T11:52:06.160Z,418.36
2019-04-25T11:53:06.140Z,417.56
2019-04-25T11:54:06.139Z,418.41
2019-04-25T11:55:06.167Z,417.98
2019-04-25T11:56:06.117Z,417.61
2019-04-25T11:57:06.110Z,417.63
2019-04-25T11:58:06.097Z,417.80
2019-04-25T11:59:06.077Z,418.25
2019-04-25T12:00:06.078Z,418.06
2019-04-25T12:01:06.075Z,417.80
2019-04-25T12:02:06.045Z,417.93
2019-04-25T12:03:06.055Z,418.18
2019-04-25T12:04:06.033Z,418.20
2019-04-25T12:05:06.027Z,418.17
2019-04-25T12:06:06.013Z,417.99
2019-04-25T12:07:07.152Z,418.08
2019-04-25T12:08:05.984Z,418.19
2019-04-25T12:09:05.960Z,417.97
2019-04-25T12:10:06.044Z,418.21
2019-04-25T12:11:06.156Z,417.88
2019-04-25T12:12:05.970Z,417.68
2019-04-25T12:13:06.756Z,418.16
2019-04-25T12:14:05.916Z,417.97
2019-04-25T12:15:05.924Z,418.28
2019-04-25T12:16:05.892Z,417.97
2019-04-25T12:17:05.879Z,418.24
2019-04-25T12:18:05.881Z,418.09
2019-04-25T12:19:05.852Z,418.15
2019-04-25T12:20:05.854Z,418.22
2019-04-25T12:21:05.845Z,417.69
2019-04-25T12:22:05.824Z,417.61
2019-04-25T12:23:10.248Z,417.61
2019-04-25T12:24:06.109Z,418.04
2019-04-25T12:25:05.807Z,418.08
2019-04-25T12:26:05.801Z,417.74
2019-04-25T12:27:05.769Z,417.65
2019-04-25T12:28:05.804Z,418.29